MZBZ/BZE METAR and TAF weather

Enter ICAO airport designator
Station Type Date Time Source
MZBZ METAR 2018/12/11 18:00 UTC NOAA

MZBZ 111800Z 34012KT 9999 FEW025 25/16 A3021 Q1023 NOSIG


Station Type Date Time Source
MZBZ Decoded METAR 2018/12/11 18:00 UTC NOAA

Belize / Phillip Goldston Intl. Airport, Belize (MZBZ) 17-32N 088-18W 5M
Dec 11, 2018 - 01:00 PM EST / 2018.12.11 1800 UTC
Wind: from the NNW (340 degrees) at 14 MPH (12 KT):0
Visibility: greater than 7 mile(s):0
Sky conditions: mostly clear
Temperature: 77 F (25 C)
Dew Point: 60 F (16 C)
Relative Humidity: 57%
Pressure (altimeter): 30.21 in. Hg (1023 hPa)
ob: MZBZ 111800Z 34012KT 9999 FEW025 25/16 A3021 Q1023 NOSIG
cycle: 18

Station Type Date Time Source
MZBZ TAF 2018/12/11 18:11 UTC NOAA

TAF MZBZ 111500Z 1118/1218 35012KT 9999 SCT020 BKN045


Example: see airport list